Time;durP1;ratioP1;P1;durP2;ratioP2;P2;SDS_P1;SDS_P2;PMS_P1;PMS_P2;Temp;Humidity;BMP_temperature;BMP_pressure;BME280_temperature;BME280_humidity;BME280_pressure;Samples;Min_cycle;Max_cycle;Signal;HPM_P1;HPM_P2
2022/02/15 00:01:17;;;;;;;9.70;7.13;;;8.70;1.00;9.20;99732.00;;;;5034953;28;20483;-78
2022/02/15 00:03:46;;;;;;;11.00;9.10;;;8.70;1.00;9.10;99746.00;;;;5069679;28;20530;-78
2022/02/15 00:06:16;;;;;;;9.80;8.77;;;8.60;1.00;9.10;99734.00;;;;5042108;28;20451;-78
2022/02/15 00:08:44;;;;;;;9.43;8.47;;;8.40;1.00;9.20;99731.00;;;;5039141;28;21349;-79
2022/02/15 00:11:12;;;;;;;10.20;9.10;;;8.80;1.00;9.30;99736.00;;;;5037562;28;20475;-79
2022/02/15 00:13:41;;;;;;;10.47;9.37;;;8.90;1.00;9.40;99743.00;;;;5047077;28;20480;-78
2022/02/15 00:16:09;;;;;;;10.80;9.27;;;8.90;1.00;9.40;99741.00;;;;5037421;28;20452;-77
2022/02/15 00:18:37;;;;;;;10.50;9.43;;;9.00;1.00;9.40;99745.00;;;;5044830;28;20959;-77
2022/02/15 00:21:06;;;;;;;10.20;9.20;;;9.00;1.00;9.40;99740.00;;;;5042065;28;20476;-78
2022/02/15 00:23:36;;;;;;;13.20;9.13;;;9.10;1.00;9.30;99734.00;;;;5033928;28;20455;-78
2022/02/15 00:26:04;;;;;;;11.37;9.67;;;9.10;1.00;9.30;99734.00;;;;5036794;28;20459;-78
2022/02/15 00:28:32;;;;;;;9.67;8.70;;;9.00;1.00;9.30;99690.00;;;;5032788;28;20468;-78
2022/02/15 00:31:00;;;;;;;12.07;9.07;;;9.00;1.00;9.40;99738.00;;;;5035685;28;20476;-78
2022/02/15 00:33:29;;;;;;;11.27;9.50;;;9.10;1.00;9.30;99750.00;;;;5036623;28;20468;-77
2022/02/15 00:35:57;;;;;;;10.90;9.53;;;9.00;1.00;9.30;99755.00;;;;5036749;28;20454;-78
2022/02/15 00:38:26;;;;;;;11.00;9.43;;;8.90;1.00;9.30;99743.00;;;;5031801;28;21269;-77
2022/02/15 00:40:56;;;;;;;10.13;8.30;;;9.00;1.00;9.40;99754.00;;;;5066287;28;20595;-78
2022/02/15 00:43:27;;;;;;;10.80;8.37;;;9.00;1.00;9.40;99762.00;;;;5035486;28;20455;-78
2022/02/15 00:45:56;;;;;;;13.33;10.47;;;9.00;1.00;9.40;99772.00;;;;5034579;28;20464;-79
2022/02/15 00:48:25;;;;;;;9.90;8.90;;;9.00;1.00;9.40;99757.00;;;;5034224;28;20448;-78
2022/02/15 00:50:53;;;;;;;12.20;10.00;;;9.00;1.00;9.30;99761.00;;;;5032373;28;20475;-79
2022/02/15 00:53:21;;;;;;;10.83;8.83;;;8.90;1.00;9.20;99768.00;;;;5032944;28;20494;-79
2022/02/15 00:55:50;;;;;;;13.57;10.83;;;8.80;1.00;9.10;99766.00;;;;5032546;28;20463;-80
2022/02/15 00:58:20;;;;;;;11.77;10.53;;;8.70;1.00;9.00;99735.00;;;;5046517;28;20467;-78
2022/02/15 01:00:49;;;;;;;11.93;10.60;;;8.50;1.00;9.00;99765.00;;;;5034540;28;20476;-78
2022/02/15 01:03:17;;;;;;;11.67;10.47;;;8.50;1.00;9.00;99762.00;;;;5051322;28;20449;-78
2022/02/15 01:05:46;;;;;;;10.80;9.47;;;8.50;1.00;9.00;99769.00;;;;5034128;28;20460;-78
2022/02/15 01:08:14;;;;;;;11.80;10.40;;;8.70;1.00;9.00;99772.00;;;;5032343;28;20816;-78
2022/02/15 01:10:42;;;;;;;13.97;11.23;;;8.50;1.00;9.10;99773.00;;;;5033358;28;20483;-76
2022/02/15 01:13:11;;;;;;;12.37;11.17;;;8.70;1.00;9.10;99781.00;;;;5035872;28;20460;-78
2022/02/15 01:15:42;;;;;;;11.60;10.40;;;8.70;1.00;9.10;99786.00;;;;5036172;28;20483;-79
2022/02/15 01:18:10;;;;;;;11.60;10.40;;;8.70;1.00;9.10;99763.00;;;;5039958;28;21117;-78
2022/02/15 01:20:39;;;;;;;15.47;11.00;;;8.70;1.00;9.10;99773.00;;;;5069423;28;20852;-77
2022/02/15 01:23:07;;;;;;;12.20;10.90;;;8.70;1.00;9.10;99778.00;;;;5043796;28;20459;-80
2022/02/15 01:25:36;;;;;;;13.03;11.73;;;8.70;1.00;9.10;99775.00;;;;5043470;28;20493;-78
2022/02/15 01:28:05;;;;;;;13.13;11.67;;;8.70;1.00;9.10;99764.00;;;;5039323;28;20543;-78
2022/02/15 01:30:33;;;;;;;13.23;10.77;;;8.70;1.00;9.10;99774.00;;;;5038440;28;20488;-78
2022/02/15 01:33:05;;;;;;;13.03;11.03;;;8.70;1.00;9.10;99765.00;;;;5038599;28;20497;-77
2022/02/15 01:35:33;;;;;;;15.47;12.03;;;8.60;1.00;9.00;99768.00;;;;5038194;28;20449;-78
2022/02/15 01:38:02;;;;;;;14.30;11.53;;;8.60;1.00;9.00;99772.00;;;;5036208;28;20467;-78
2022/02/15 01:40:30;;;;;;;13.43;11.83;;;8.50;1.00;9.10;99759.00;;;;5050569;28;20474;-77
2022/02/15 01:42:59;;;;;;;12.53;11.20;;;8.80;1.00;9.00;99753.00;;;;5035235;28;21579;-78
2022/02/15 01:45:27;;;;;;;14.27;12.33;;;8.60;1.00;9.10;99766.00;;;;5033550;28;20994;-78
2022/02/15 01:47:56;;;;;;;13.37;10.80;;;8.50;1.00;9.10;99761.00;;;;5034915;28;20456;-78
2022/02/15 01:50:27;;;;;;;13.13;11.80;;;8.60;1.00;9.10;99760.00;;;;5035665;28;20483;-78
2022/02/15 01:52:55;;;;;;;13.50;11.80;;;8.60;1.00;9.10;99769.00;;;;5032804;28;20533;-78
2022/02/15 01:55:24;;;;;;;12.80;11.50;;;8.60;1.00;9.20;99775.00;;;;5033796;28;20475;-77
2022/02/15 01:57:52;;;;;;;12.80;11.57;;;8.70;1.00;9.20;99752.00;;;;5035329;28;20513;-77
2022/02/15 02:00:25;;;;;;;12.27;11.00;;;8.70;1.00;9.20;99754.00;;;;5067762;28;20510;-77
2022/02/15 02:03:05;;;;;;;13.77;12.27;;;8.80;1.00;9.20;99760.00;;;;5034604;28;21016;-77
2022/02/15 02:05:51;;;;;;;14.77;11.70;;;8.80;1.00;9.20;99771.00;;;;5034717;28;20464;-78
2022/02/15 02:08:29;;;;;;;15.23;13.40;;;8.70;1.00;9.10;99780.00;;;;5034874;28;20455;-77
2022/02/15 02:10:57;;;;;;;16.53;12.77;;;8.70;1.00;9.10;99768.00;;;;5039531;28;20554;-77
2022/02/15 02:13:36;;;;;;;15.27;13.67;;;8.60;1.00;9.10;99772.00;;;;5040667;28;20460;-77
2022/02/15 02:16:08;;;;;;;15.87;14.13;;;8.70;1.00;9.00;99769.00;;;;5039825;28;20445;-78
2022/02/15 02:18:52;;;;;;;16.00;14.30;;;8.50;1.00;8.90;99756.00;;;;5053110;28;20544;-79
2022/02/15 02:21:38;;;;;;;19.97;14.97;;;8.40;1.00;8.80;99766.00;;;;5099735;28;20472;-80
2022/02/15 02:24:08;;;;;;;17.23;15.30;;;8.30;1.00;8.80;99755.00;;;;5065259;28;20436;-79
2022/02/15 02:26:40;;;;;;;15.90;14.20;;;8.30;1.00;8.70;99740.00;;;;5064130;28;20508;-79
2022/02/15 02:29:10;;;;;;;17.80;15.97;;;8.20;1.00;8.80;99739.00;;;;5068189;28;20440;-78
2022/02/15 02:31:44;;;;;;;17.03;15.20;;;8.30;1.00;8.80;99758.00;;;;5064146;28;20639;-78
2022/02/15 02:34:15;;;;;;;17.43;15.50;;;8.30;1.00;8.80;99744.00;;;;5052459;28;20978;-77
2022/02/15 02:36:47;;;;;;;20.30;16.20;;;8.70;1.00;8.90;99748.00;;;;5047797;28;20449;-77
2022/02/15 02:39:18;;;;;;;16.93;15.13;;;8.50;1.00;8.90;99748.00;;;;5044891;28;20453;-78
2022/02/15 02:41:47;;;;;;;17.97;15.30;;;8.40;1.00;8.90;99754.00;;;;5057731;28;20514;-78
2022/02/15 02:44:16;;;;;;;18.10;15.93;;;8.40;1.00;8.90;99768.00;;;;5057954;28;20455;-78
2022/02/15 02:46:44;;;;;;;17.93;15.67;;;8.50;1.00;8.80;99759.00;;;;5094553;28;20475;-79
2022/02/15 02:49:12;;;;;;;17.03;15.00;;;8.50;1.00;8.90;99754.00;;;;5091120;28;20474;-79
2022/02/15 02:51:42;;;;;;;16.13;13.83;;;8.40;1.00;9.00;99752.00;;;;5073243;28;20473;-78
2022/02/15 02:54:11;;;;;;;17.30;14.67;;;8.50;1.00;9.00;99767.00;;;;5024793;28;20506;-77
2022/02/15 02:56:50;;;;;;;20.20;15.27;;;8.50;1.00;8.90;99749.00;;;;5025335;28;20452;-77
2022/02/15 02:59:19;;;;;;;15.30;13.70;;;8.40;1.00;8.80;99772.00;;;;5048431;28;20456;-77
2022/02/15 03:01:48;;;;;;;17.47;14.90;;;8.40;1.00;8.80;99764.00;;;;5075045;28;20496;-77
2022/02/15 03:04:16;;;;;;;16.00;14.13;;;8.70;1.00;8.70;99753.00;;;;5040127;28;20484;-77
2022/02/15 03:06:45;;;;;;;15.57;13.80;;;8.20;1.00;8.70;99762.00;;;;5059980;28;20452;-78
2022/02/15 03:09:15;;;;;;;15.20;13.60;;;8.10;1.00;8.70;99759.00;;;;5073249;28;20510;-78
2022/02/15 03:11:44;;;;;;;14.20;12.70;;;8.20;1.00;8.70;99734.00;;;;5041371;28;20460;-77
2022/02/15 03:14:12;;;;;;;15.30;13.70;;;8.20;1.00;8.70;99759.00;;;;5038810;28;20456;-77
2022/02/15 03:16:55;;;;;;;16.80;12.80;;;8.40;1.00;8.70;99764.00;;;;5038315;28;20448;-78
2022/02/15 03:19:23;;;;;;;15.13;12.47;;;8.20;1.00;8.60;99769.00;;;;5070613;28;20452;-77
2022/02/15 03:21:51;;;;;;;17.27;13.30;;;8.10;1.00;8.50;99761.00;;;;5044330;28;20918;-77
2022/02/15 03:24:21;;;;;;;16.20;12.73;;;8.00;1.00;8.50;99761.00;;;;5055032;28;20495;-77
2022/02/15 03:26:56;;;;;;;16.80;13.87;;;8.30;1.00;8.50;99769.00;;;;5070465;28;20528;-77
2022/02/15 03:29:25;;;;;;;16.63;13.30;;;8.00;1.00;8.50;99762.00;;;;5069985;28;20487;-77
2022/02/15 03:31:54;;;;;;;17.23;13.47;;;8.10;1.00;8.50;99766.00;;;;5038317;28;20440;-77
2022/02/15 03:34:23;;;;;;;15.43;12.40;;;8.00;1.00;8.40;99776.00;;;;5044715;28;20456;-77
2022/02/15 03:36:51;;;;;;;13.90;11.70;;;7.90;1.00;8.40;99778.00;;;;5022052;28;20862;-77
2022/02/15 03:39:23;;;;;;;12.60;10.80;;;7.90;1.00;8.40;99775.00;;;;5043187;28;20969;-77
2022/02/15 03:44:44;;;;;;;16.00;12.33;;;7.90;1.00;8.40;99780.00;;;;5036635;28;20452;-79
2022/02/15 03:47:18;;;;;;;12.60;9.87;;;7.90;1.00;8.50;99798.00;;;;5052461;28;20829;-77
2022/02/15 03:49:46;;;;;;;12.40;10.17;;;8.00;1.00;8.50;99793.00;;;;5033184;28;20463;-77
2022/02/15 03:52:16;;;;;;;17.50;11.27;;;8.10;1.00;8.60;99797.00;;;;5032654;28;20983;-77
2022/02/15 03:54:49;;;;;;;12.90;11.60;;;8.20;1.00;8.70;99797.00;;;;5043803;28;20474;-78
2022/02/15 03:57:17;;;;;;;15.60;11.70;;;8.30;1.00;8.80;99791.00;;;;5051033;28;20524;-78
2022/02/15 03:59:46;;;;;;;14.20;10.77;;;8.40;1.00;8.80;99810.00;;;;5032529;28;20463;-77
2022/02/15 04:02:20;;;;;;;13.97;11.10;;;8.40;1.00;8.80;99804.00;;;;5034810;28;20478;-78
2022/02/15 04:04:49;;;;;;;15.27;11.57;;;8.40;1.00;8.90;99806.00;;;;5049285;28;20473;-78
2022/02/15 04:07:19;;;;;;;13.37;10.57;;;8.50;1.00;9.00;99823.00;;;;5033050;28;20531;-77
2022/02/15 04:09:49;;;;;;;11.93;10.40;;;8.60;1.00;9.00;99821.00;;;;5040515;28;20485;-78
2022/02/15 04:12:17;;;;;;;13.97;11.57;;;8.60;1.00;9.00;99813.00;;;;5067021;28;20470;-78
2022/02/15 04:14:46;;;;;;;12.20;10.17;;;8.60;1.00;9.00;99802.00;;;;5035892;28;20453;-79
2022/02/15 04:17:14;;;;;;;12.70;10.90;;;8.70;1.00;8.90;99805.00;;;;5067401;28;20987;-77
2022/02/15 04:19:42;;;;;;;12.23;10.97;;;8.70;1.00;9.00;99812.00;;;;5033991;28;20460;-79
2022/02/15 04:22:11;;;;;;;12.03;10.47;;;8.60;1.00;9.00;99825.00;;;;5034297;28;20906;-78
2022/02/15 04:24:44;;;;;;;13.07;11.00;;;8.60;1.00;9.00;99823.00;;;;5064086;28;20469;-79
2022/02/15 04:27:15;;;;;;;14.50;11.10;;;8.60;1.00;9.00;99825.00;;;;5034163;28;20444;-78
2022/02/15 04:29:45;;;;;;;13.20;10.43;;;8.20;1.00;9.00;99840.00;;;;5033093;28;20481;-78
2022/02/15 04:32:14;;;;;;;15.07;11.90;;;8.60;1.00;9.00;99832.00;;;;5036428;28;20455;-78
2022/02/15 04:34:43;;;;;;;12.63;11.33;;;8.70;1.00;9.00;99850.00;;;;5042707;28;20510;-78
2022/02/15 04:37:11;;;;;;;11.90;10.20;;;8.70;1.00;9.00;99834.00;;;;5070597;28;20491;-79
2022/02/15 04:39:40;;;;;;;14.40;11.00;;;8.60;1.00;9.00;99834.00;;;;5035805;28;20495;-79
2022/02/15 04:42:14;;;;;;;15.00;10.87;;;8.60;1.00;9.00;99839.00;;;;5032961;28;21000;-79
2022/02/15 04:44:43;;;;;;;14.00;10.80;;;8.60;1.00;9.00;99851.00;;;;5035552;28;21447;-78
2022/02/15 04:47:15;;;;;;;13.67;10.80;;;8.70;1.00;9.10;99840.00;;;;5034531;28;20465;-78
2022/02/15 04:49:44;;;;;;;15.20;11.43;;;8.70;1.00;9.10;99843.00;;;;5068035;28;20475;-78
2022/02/15 04:52:13;;;;;;;13.87;12.43;;;8.80;1.00;9.10;99853.00;;;;5032651;28;21055;-78
2022/02/15 04:54:42;;;;;;;13.97;10.67;;;8.90;1.00;9.10;99849.00;;;;5034148;28;20510;-78
2022/02/15 04:57:10;;;;;;;12.20;10.57;;;8.90;1.00;9.20;99856.00;;;;5067517;28;20480;-77
2022/02/15 04:59:44;;;;;;;13.00;11.00;;;8.90;1.00;9.20;99861.00;;;;5033013;28;20459;-78
2022/02/15 05:02:23;;;;;;;11.57;10.37;;;8.90;1.00;9.20;99868.00;;;;5033806;28;20460;-78
2022/02/15 05:04:53;;;;;;;11.87;10.60;;;8.80;1.00;9.10;99868.00;;;;5033085;28;20485;-77
2022/02/15 05:07:35;;;;;;;12.73;10.63;;;8.80;1.00;9.00;99872.00;;;;5032128;28;20799;-78
2022/02/15 05:10:04;;;;;;;11.73;10.10;;;8.60;1.00;8.90;99865.00;;;;5036591;28;20480;-76
2022/02/15 05:12:37;;;;;;;13.07;9.90;;;8.50;1.00;8.90;99872.00;;;;5034237;28;20462;-79
2022/02/15 05:15:10;;;;;;;13.13;9.70;;;8.50;1.00;8.90;99870.00;;;;5047327;28;20452;-79
2022/02/15 05:18:05;;;;;;;11.40;9.40;;;8.50;1.00;8.90;99866.00;;;;5068325;28;20475;-80
2022/02/15 05:20:35;;;;;;;11.83;10.30;;;8.50;1.00;8.90;99864.00;;;;5046852;28;20485;-79
2022/02/15 05:23:04;;;;;;;9.20;8.23;;;8.50;1.00;8.90;99861.00;;;;5037198;28;20445;-78
2022/02/15 05:25:39;;;;;;;11.53;8.37;;;8.50;1.00;8.90;99864.00;;;;5034402;28;20467;-77
2022/02/15 05:28:13;;;;;;;11.73;9.30;;;8.50;1.00;9.00;99864.00;;;;5033373;28;20451;-78
2022/02/15 05:30:44;;;;;;;12.50;9.13;;;8.50;1.00;9.00;99849.00;;;;5030415;28;20529;-80
2022/02/15 05:33:19;;;;;;;12.60;9.47;;;8.50;1.00;9.00;99873.00;;;;5065826;28;20447;-78
2022/02/15 05:35:52;;;;;;;10.67;8.83;;;8.60;1.00;9.00;99866.00;;;;5032944;28;20830;-79
2022/02/15 05:38:20;;;;;;;10.47;8.80;;;9.10;1.00;9.10;99872.00;;;;5038900;28;20535;-78
2022/02/15 05:40:52;;;;;;;11.40;9.00;;;8.70;1.00;9.10;99862.00;;;;5034294;28;20514;-77
2022/02/15 05:43:20;;;;;;;9.90;8.90;;;9.00;1.00;9.00;99870.00;;;;5030888;28;20598;-78
2022/02/15 05:45:55;;;;;;;11.23;9.30;;;8.60;1.00;9.00;99879.00;;;;5039056;28;20459;-79
2022/02/15 05:48:28;;;;;;;10.47;9.37;;;8.70;1.00;9.10;99866.00;;;;5037612;28;20737;-80
2022/02/15 05:51:04;;;;;;;12.80;9.60;;;8.70;1.00;9.10;99868.00;;;;5040250;28;21015;-80
2022/02/15 05:53:56;;;;;;;11.10;8.80;;;8.70;1.00;9.10;99890.00;;;;5043972;28;20477;-78
2022/02/15 05:56:31;;;;;;;12.53;9.60;;;8.80;1.00;9.10;99902.00;;;;5035897;28;20467;-77
2022/02/15 05:59:11;;;;;;;12.17;10.90;;;8.80;1.00;9.20;99896.00;;;;5037514;28;20440;-77
2022/02/15 06:01:53;;;;;;;12.60;10.27;;;9.20;1.00;9.10;99883.00;;;;5043434;28;20472;-77
2022/02/15 06:04:24;;;;;;;11.47;9.60;;;8.70;1.00;9.10;99900.00;;;;5053700;28;20476;-77
2022/02/15 06:07:04;;;;;;;11.33;9.80;;;8.70;1.00;8.90;99891.00;;;;5036626;28;21043;-77
2022/02/15 06:09:33;;;;;;;14.47;11.40;;;8.40;1.00;8.80;99901.00;;;;5035037;28;20511;-77
2022/02/15 06:12:04;;;;;;;12.00;10.80;;;8.60;1.00;8.80;99898.00;;;;5036233;28;20452;-79
2022/02/15 06:14:41;;;;;;;12.60;11.27;;;8.30;1.00;8.80;99901.00;;;;5038108;28;20869;-77
2022/02/15 06:17:15;;;;;;;13.43;11.63;;;8.30;1.00;8.80;99892.00;;;;5036600;28;20530;-79
2022/02/15 06:19:48;;;;;;;11.73;10.27;;;8.30;1.00;8.80;99895.00;;;;5036530;28;21039;-79
2022/02/15 06:22:20;;;;;;;13.40;11.50;;;8.50;1.00;8.90;99907.00;;;;5053623;28;21318;-77
2022/02/15 06:24:48;;;;;;;12.90;10.60;;;8.50;1.00;9.00;99904.00;;;;5037912;28;21001;-77
2022/02/15 06:27:26;;;;;;;12.30;11.07;;;8.60;1.00;8.90;99920.00;;;;5037495;28;20534;-80
2022/02/15 06:30:10;;;;;;;11.77;10.60;;;8.50;1.00;8.90;99915.00;;;;5052769;28;20490;-78
2022/02/15 06:32:49;;;;;;;14.10;11.80;;;8.50;1.00;8.80;99918.00;;;;5034948;28;20460;-79
2022/02/15 06:35:18;;;;;;;12.13;10.83;;;8.30;1.00;8.80;99930.00;;;;5071276;28;20460;-79
2022/02/15 06:37:55;;;;;;;14.07;11.40;;;8.40;1.00;8.90;99927.00;;;;5036411;28;20484;-79
2022/02/15 06:40:26;;;;;;;13.67;10.97;;;8.50;1.00;8.90;99932.00;;;;5034786;28;20522;-78
2022/02/15 06:42:57;;;;;;;14.20;12.70;;;8.50;1.00;8.90;99938.00;;;;5036519;28;20478;-78
2022/02/15 06:45:26;;;;;;;13.50;12.10;;;8.60;1.00;8.90;99951.00;;;;5044035;28;20444;-79
2022/02/15 06:47:56;;;;;;;13.83;12.00;;;8.60;1.00;8.90;99935.00;;;;5044250;28;20466;-78
2022/02/15 06:50:26;;;;;;;14.43;12.43;;;8.60;1.00;8.90;99947.00;;;;5037888;28;20469;-78
2022/02/15 06:53:20;;;;;;;14.10;12.53;;;8.60;1.00;8.70;99944.00;;;;5004182;28;20543;-77
2022/02/15 06:56:09;;;;;;;13.30;11.90;;;8.30;1.00;8.80;99943.00;;;;5036705;28;20442;-77
2022/02/15 06:58:41;;;;;;;15.07;11.83;;;8.30;1.00;8.70;99963.00;;;;5020326;28;20464;-79
2022/02/15 07:01:16;;;;;;;14.17;12.70;;;8.30;1.00;8.80;99975.00;;;;5037027;28;20559;-78
2022/02/15 07:03:47;;;;;;;13.73;11.67;;;8.30;1.00;8.80;99985.00;;;;5037187;28;20502;-78
2022/02/15 07:06:15;;;;;;;14.20;12.60;;;8.40;1.00;8.90;99972.00;;;;5042401;28;20519;-78
2022/02/15 07:08:46;;;;;;;19.83;11.87;;;8.40;1.00;8.80;99985.00;;;;5041789;28;20457;-78
2022/02/15 07:11:17;;;;;;;12.90;11.50;;;8.30;1.00;8.80;99986.00;;;;5036922;28;20517;-78
2022/02/15 07:13:49;;;;;;;14.43;12.90;;;8.50;1.00;8.80;99991.00;;;;5035810;28;20502;-78
2022/02/15 07:16:18;;;;;;;13.60;11.87;;;8.30;1.00;8.80;99988.00;;;;5037521;28;20456;-79
2022/02/15 07:18:50;;;;;;;13.83;12.43;;;8.30;1.00;8.80;99990.00;;;;5037814;28;20456;-77
2022/02/15 07:21:49;;;;;;;14.67;12.37;;;8.30;1.00;8.90;100016.00;;;;5041312;28;20460;-77
2022/02/15 07:24:41;;;;;;;13.00;11.57;;;8.40;1.00;9.00;100020.00;;;;5038162;28;20822;-78
2022/02/15 07:27:27;;;;;;;13.50;12.20;;;8.50;1.00;9.10;100014.00;;;;5035139;28;20832;-78
2022/02/15 07:29:58;;;;;;;13.30;11.50;;;8.70;1.00;9.10;100000.00;;;;5069941;28;20477;-78
2022/02/15 07:32:51;;;;;;;12.33;11.03;;;8.70;1.00;9.20;100010.00;;;;5035107;28;20476;-77
2022/02/15 07:35:22;;;;;;;19.33;11.90;;;8.80;1.00;9.30;100015.00;;;;5021790;28;21440;-77
2022/02/15 07:37:52;;;;;;;13.43;11.20;;;8.80;1.00;9.40;100008.00;;;;5036414;28;20571;-77
2022/02/15 07:40:24;;;;;;;12.90;11.23;;;9.00;1.00;9.50;100022.00;;;;5036486;28;20979;-78
2022/02/15 07:42:53;;;;;;;14.27;10.90;;;9.10;1.00;9.50;100020.00;;;;5037970;28;20460;-78
2022/02/15 07:45:40;;;;;;;14.17;11.00;;;9.10;1.00;9.40;100028.00;;;;5019569;28;20479;-77
2022/02/15 07:48:09;;;;;;;11.67;9.93;;;9.00;1.00;9.40;100025.00;;;;5037644;28;20457;-77
2022/02/15 07:50:40;;;;;;;11.57;10.33;;;8.90;1.00;9.30;100037.00;;;;5040830;28;20491;-78
2022/02/15 07:53:09;;;;;;;11.17;10.03;;;8.90;1.00;9.30;100054.00;;;;5043566;28;20523;-79
2022/02/15 07:55:38;;;;;;;12.70;11.10;;;8.90;1.00;9.30;100032.00;;;;5039198;28;20456;-78
2022/02/15 07:58:06;;;;;;;13.23;11.07;;;8.90;1.00;9.30;100055.00;;;;5054678;28;20472;-80
2022/02/15 08:00:35;;;;;;;11.90;9.80;;;8.80;1.00;9.20;100050.00;;;;5062552;28;20503;-80
2022/02/15 08:03:05;;;;;;;11.33;9.90;;;8.80;1.00;9.30;100049.00;;;;5094362;28;20440;-78
2022/02/15 08:05:34;;;;;;;13.80;11.43;;;8.80;1.00;9.30;100058.00;;;;5060310;28;20456;-79
2022/02/15 08:08:10;;;;;;;10.90;9.70;;;8.80;1.00;9.20;100066.00;;;;5042200;28;20478;-77
2022/02/15 08:10:38;;;;;;;11.30;10.10;;;8.80;1.00;9.30;100073.00;;;;5043091;28;20483;-77
2022/02/15 08:13:08;;;;;;;12.17;9.87;;;8.80;1.00;9.20;100061.00;;;;5044641;28;20448;-77
2022/02/15 08:15:41;;;;;;;9.73;8.73;;;8.80;1.00;9.10;100053.00;;;;5055044;28;20440;-77
2022/02/15 08:18:09;;;;;;;11.17;9.83;;;8.60;1.00;9.10;100078.00;;;;5039895;28;20479;-77
2022/02/15 08:20:38;;;;;;;12.77;10.20;;;8.50;1.00;9.00;100073.00;;;;5037284;28;20584;-77
2022/02/15 08:23:07;;;;;;;14.23;11.57;;;8.50;1.00;9.00;100094.00;;;;5038793;28;20449;-77
2022/02/15 08:25:37;;;;;;;13.47;11.30;;;8.50;1.00;9.10;100084.00;;;;5037358;28;20930;-76
2022/02/15 08:28:06;;;;;;;12.73;11.17;;;8.50;1.00;9.10;100093.00;;;;5070220;28;21410;-78
2022/02/15 08:30:34;;;;;;;14.27;11.73;;;8.60;1.00;9.20;100074.00;;;;5033409;28;20862;-76
2022/02/15 08:33:03;;;;;;;16.00;12.03;;;8.80;1.00;9.30;100088.00;;;;5034899;28;20975;-77
2022/02/15 08:35:32;;;;;;;12.60;11.30;;;8.80;1.00;9.40;100092.00;;;;5042025;28;20471;-77
2022/02/15 08:38:02;;;;;;;15.37;11.80;;;8.90;1.00;9.40;100098.00;;;;5035567;28;20476;-77
2022/02/15 08:40:31;;;;;;;13.77;11.30;;;9.00;1.00;9.50;100067.00;;;;5035017;28;20556;-77
2022/02/15 08:43:01;;;;;;;14.93;11.57;;;9.10;1.00;9.70;100080.00;;;;5033786;28;20447;-77
2022/02/15 08:45:29;;;;;;;15.30;11.90;;;9.30;1.00;9.90;100096.00;;;;5037196;28;20451;-78
2022/02/15 08:47:58;;;;;;;17.00;14.73;;;9.60;1.00;10.00;100094.00;;;;5034832;28;20487;-78
2022/02/15 08:50:26;;;;;;;13.97;10.90;;;9.60;1.00;10.00;100106.00;;;;5066889;28;20469;-76
2022/02/15 08:53:07;;;;;;;14.40;11.80;;;9.70;1.00;10.10;100094.00;;;;5035647;28;20562;-78
2022/02/15 08:55:36;;;;;;;16.00;12.63;;;9.60;1.00;10.00;100088.00;;;;5021287;28;20487;-79
2022/02/15 08:58:06;;;;;;;15.47;12.17;;;9.50;1.00;10.00;100114.00;;;;5032731;28;20507;-77
2022/02/15 09:00:36;;;;;;;12.70;10.83;;;9.60;1.00;10.10;100113.00;;;;5034510;28;20482;-79
2022/02/15 09:03:05;;;;;;;13.00;11.60;;;9.60;1.00;10.20;100109.00;;;;5067444;28;20459;-78
2022/02/15 09:05:33;;;;;;;15.77;12.13;;;9.80;1.00;10.50;100102.00;;;;5035004;28;20974;-78
2022/02/15 09:08:01;;;;;;;15.60;11.13;;;9.90;1.00;10.70;100116.00;;;;5036958;28;20487;-77
2022/02/15 09:10:30;;;;;;;13.40;11.60;;;10.20;1.00;10.70;100125.00;;;;5039061;28;20472;-77
2022/02/15 09:12:58;;;;;;;12.33;11.03;;;10.30;1.00;10.80;100120.00;;;;5037667;28;20470;-79
2022/02/15 09:15:28;;;;;;;13.40;11.90;;;10.30;1.00;10.90;100128.00;;;;5032949;28;20824;-78
2022/02/15 09:17:57;;;;;;;15.63;12.13;;;10.50;1.00;11.00;100125.00;;;;5037855;28;20511;-79
2022/02/15 09:20:27;;;;;;;14.43;13.00;;;10.90;1.00;11.10;100138.00;;;;5039321;28;20480;-77
2022/02/15 09:22:55;;;;;;;14.17;12.70;;;11.00;1.00;11.30;100125.00;;;;5032551;28;20453;-78
2022/02/15 09:25:24;;;;;;;13.17;11.77;;;10.90;1.00;11.30;100124.00;;;;5038806;28;20957;-78
2022/02/15 09:27:52;;;;;;;13.30;11.70;;;10.90;1.00;11.30;100139.00;;;;5034777;28;20490;-77
2022/02/15 09:30:21;;;;;;;11.77;10.57;;;10.90;1.00;11.30;100125.00;;;;5040684;28;21034;-79
2022/02/15 09:32:50;;;;;;;13.73;11.10;;;10.90;1.00;11.30;100140.00;;;;5034707;28;20551;-79
2022/02/15 09:35:19;;;;;;;13.33;11.93;;;11.00;1.00;11.20;100141.00;;;;5039466;28;20501;-77
2022/02/15 09:37:47;;;;;;;13.20;10.83;;;10.80;1.00;11.30;100144.00;;;;5038393;28;20849;-79
2022/02/15 09:40:16;;;;;;;18.73;11.93;;;10.90;1.00;11.40;100134.00;;;;5041190;28;20473;-78
2022/02/15 09:42:46;;;;;;;13.30;10.30;;;11.00;1.00;11.50;100154.00;;;;5037796;28;20491;-78
2022/02/15 09:45:14;;;;;;;12.10;10.07;;;11.10;1.00;11.60;100147.00;;;;5036262;28;20449;-76
2022/02/15 09:47:45;;;;;;;10.87;9.17;;;11.20;1.00;11.50;100165.00;;;;5029783;28;20464;-78
2022/02/15 09:50:15;;;;;;;12.33;10.27;;;11.10;1.00;11.30;100164.00;;;;5033864;28;20491;-79
2022/02/15 09:52:46;;;;;;;11.77;9.03;;;10.90;1.00;11.40;100166.00;;;;5029675;28;20460;-79
2022/02/15 09:55:15;;;;;;;9.73;8.37;;;11.10;1.00;11.40;100152.00;;;;5019621;28;20536;-78
2022/02/15 09:57:44;;;;;;;9.97;7.80;;;11.00;1.00;11.50;100172.00;;;;5032131;28;20516;-80
2022/02/15 10:00:15;;;;;;;12.97;9.90;;;11.10;1.00;11.50;100185.00;;;;5034688;28;20842;-78
2022/02/15 10:02:44;;;;;;;11.37;7.97;;;11.20;1.00;11.40;100180.00;;;;5032814;28;20917;-78
2022/02/15 10:05:18;;;;;;;9.43;8.17;;;11.10;1.00;11.50;100165.00;;;;5033185;28;20471;-78
2022/02/15 10:07:56;;;;;;;9.80;8.57;;;11.10;1.00;11.40;100174.00;;;;5029384;28;20453;-78
2022/02/15 10:10:30;;;;;;;11.33;8.00;;;11.00;1.00;11.20;100185.00;;;;5034815;28;20529;-77
2022/02/15 10:13:04;;;;;;;8.90;7.97;;;10.90;1.00;11.20;100176.00;;;;5035214;28;20476;-80
2022/02/15 10:15:38;;;;;;;8.30;7.50;;;10.80;1.00;11.00;100188.00;;;;5035200;28;20484;-79
2022/02/15 10:18:13;;;;;;;11.67;8.50;;;10.60;1.00;10.90;100193.00;;;;5034393;28;20463;-79
2022/02/15 10:20:46;;;;;;;9.70;6.77;;;10.60;1.00;11.00;100192.00;;;;5029427;28;20483;-79
2022/02/15 10:23:17;;;;;;;9.53;6.80;;;10.50;1.00;11.00;100198.00;;;;5031626;28;20515;-77
2022/02/15 10:25:47;;;;;;;8.83;6.90;;;10.60;1.00;11.20;100183.00;;;;5016887;28;20464;-77
2022/02/15 10:28:17;;;;;;;6.67;5.80;;;11.00;1.00;11.30;100192.00;;;;5030905;28;20469;-79
2022/02/15 10:30:49;;;;;;;7.47;6.67;;;10.90;1.00;11.40;100198.00;;;;5040220;28;20504;-77
2022/02/15 10:33:19;;;;;;;14.43;6.50;;;11.00;1.00;11.40;100197.00;;;;5066187;28;20987;-78
2022/02/15 10:36:00;;;;;;;6.40;5.70;;;11.10;1.00;11.60;100215.00;;;;5040158;28;20467;-78
2022/02/15 10:38:32;;;;;;;8.50;6.40;;;11.30;1.00;11.60;100206.00;;;;5052305;28;20508;-79
2022/02/15 10:41:03;;;;;;;6.20;5.40;;;11.30;1.00;11.40;100195.00;;;;5038575;28;21005;-77
2022/02/15 10:43:44;;;;;;;8.13;5.90;;;11.10;1.00;11.30;100192.00;;;;5037025;28;20493;-80
2022/02/15 10:46:15;;;;;;;5.87;5.27;;;10.90;1.00;11.20;100189.00;;;;5036019;28;20887;-76
2022/02/15 10:48:45;;;;;;;7.93;5.40;;;11.00;1.00;11.10;100206.00;;;;5033338;28;20447;-79
2022/02/15 10:51:16;;;;;;;6.47;4.63;;;10.70;1.00;11.10;100211.00;;;;5034710;28;20487;-80
2022/02/15 10:54:00;;;;;;;6.90;4.63;;;10.90;1.00;11.00;100221.00;;;;5035026;28;20466;-78
2022/02/15 10:56:34;;;;;;;7.20;4.47;;;11.10;1.00;11.10;100214.00;;;;5036888;28;20487;-78
2022/02/15 10:59:05;;;;;;;6.27;4.73;;;11.00;1.00;11.00;100215.00;;;;5038536;28;20480;-78
2022/02/15 11:01:34;;;;;;;8.63;5.00;;;10.80;1.00;11.10;100212.00;;;;5037656;28;20534;-78
2022/02/15 11:04:04;;;;;;;7.40;5.23;;;10.90;1.00;11.10;100179.00;;;;5040072;28;20566;-78
2022/02/15 11:06:34;;;;;;;7.97;5.00;;;11.00;1.00;11.40;100202.00;;;;5033052;28;20457;-78
2022/02/15 11:09:07;;;;;;;6.33;4.87;;;11.10;1.00;11.60;100205.00;;;;5072241;28;21031;-79
2022/02/15 11:11:52;;;;;;;5.33;4.50;;;11.40;1.00;11.90;100205.00;;;;5042731;28;20476;-79
2022/02/15 11:14:21;;;;;;;6.10;4.43;;;11.60;1.00;12.20;100213.00;;;;5066980;28;20441;-78
2022/02/15 11:16:50;;;;;;;6.17;4.30;;;12.00;1.00;12.40;100209.00;;;;5038178;28;20460;-79
2022/02/15 11:19:21;;;;;;;5.80;4.90;;;12.30;1.00;12.50;100218.00;;;;5041763;28;20476;-78
2022/02/15 11:21:57;;;;;;;8.40;6.60;;;12.40;1.00;12.50;100213.00;;;;5041015;28;21228;-79